Altus Air Force Base Altus US
ICAO: KLTS
IATA: LTS
Category: Large
Scheduled Services: No

Elevation: 1382 ft
TransAlt. 18000 ft.

Airport Communications:
APP:125.1
ATIS:27.35
CLNC DEL:120.65
DEP:125.1
GND:121.85
PMSV METRO:23.98
COMD POST:31.1
PTD:37.22
TWR:119.65

KLTS Zoom In..

Runways:

(A) RW 17L length 9001 ft width 150 ft
ILS 110.55 / hdg 172

(B) RW 17R length 13440 ft width 150 ft
ILS 111.30 / hdg 172

(C) RW 35L length 13440 ft width 150 ft
ILS 110.30 / hdg 352

(D) RW 35R length 9001 ft width 150 ft
ILS 110.55 / hdg 352

Location; KLTS
Day. 21 / Time. 23.56 Zulu
* Altimeter: 29.71
* Temperature: 16° c. 60.8°f.
* Wind from: 250° Speed 17 kn with Gusts up to 27 kn.
Dewpoint: -17° c.
Visibility: 10 Statute Miles.
Clouds: Clear (automated report).

KLTS 212356Z AUTO 25017G27KT 10SM CLR 16/M17 A2971 RMK AO2 PK WND 26035/2257 SLP059 T01591170 10225 20159 52022 $


Wind From 250°
Speed 17 kn.

jpsM music video
CHECK IT OUT

jpsM - It Moves..

 
jpsmedia.com for Web Design  worldairports.se 2018   terms of use